createdAt,value
2024-02-09T00:02:09.407Z,10.68
2024-02-09T00:12:12.394Z,10.70
2024-02-09T00:22:17.322Z,10.74
2024-02-09T00:32:20.500Z,10.75
2024-02-09T00:42:25.010Z,10.84
2024-02-09T00:52:28.458Z,10.81
2024-02-09T01:02:32.834Z,10.86
2024-02-09T01:12:53.293Z,10.75
2024-02-09T01:23:14.934Z,10.73
2024-02-09T01:33:35.376Z,10.69
2024-02-09T01:43:57.261Z,10.65
2024-02-09T01:54:17.689Z,10.66
2024-02-09T02:04:39.376Z,10.54
2024-02-09T02:14:59.529Z,10.59
2024-02-09T02:25:24.344Z,10.57
2024-02-09T02:35:44.871Z,10.46
2024-02-09T02:45:49.869Z,10.45
2024-02-09T02:56:10.330Z,10.36
2024-02-09T03:06:14.609Z,10.31
2024-02-09T03:16:18.552Z,10.11
2024-02-09T03:26:24.197Z,9.84
2024-02-09T03:36:27.018Z,9.78
2024-02-09T03:46:33.061Z,9.64
2024-02-09T03:56:35.902Z,9.67
2024-02-09T04:06:41.440Z,9.69
2024-02-09T04:16:44.353Z,9.66
2024-02-09T04:26:49.673Z,9.64
2024-02-09T04:36:57.259Z,9.73
2024-02-09T04:47:02.076Z,9.75
2024-02-09T04:57:05.086Z,9.66
2024-02-09T05:07:09.269Z,9.71
2024-02-09T05:17:12.576Z,9.64
2024-02-09T05:27:16.761Z,9.53
2024-02-09T05:37:19.729Z,9.52
2024-02-09T05:47:24.034Z,9.57
2024-02-09T05:57:28.105Z,9.63
2024-02-09T06:07:32.803Z,9.69
2024-02-09T06:17:35.729Z,9.74
2024-02-09T06:27:39.907Z,9.78
2024-02-09T06:37:42.823Z,9.85
2024-02-09T06:47:47.121Z,9.86
2024-02-09T06:57:51.715Z,9.95
2024-02-09T07:07:56.104Z,9.95
2024-02-09T07:18:01.218Z,10.01
2024-02-09T07:28:05.928Z,10.07
2024-02-09T07:38:08.822Z,10.14
2024-02-09T07:48:13.062Z,10.26
2024-02-09T07:58:18.420Z,10.38
2024-02-09T08:08:22.728Z,10.41
2024-02-09T08:18:26.417Z,10.60
2024-02-09T08:28:30.711Z,10.85
2024-02-09T08:38:35.231Z,10.90
2024-02-09T08:48:39.934Z,11.10
2024-02-09T08:58:43.185Z,11.24
2024-02-09T09:08:47.712Z,11.38
2024-02-09T09:18:53.343Z,11.47
2024-02-09T09:28:58.559Z,11.53
2024-02-09T09:39:06.903Z,11.61
2024-02-09T09:49:12.180Z,12.14
2024-02-09T09:59:15.139Z,12.57
2024-02-09T10:09:19.476Z,12.63
2024-02-09T10:19:22.390Z,12.62
2024-02-09T10:29:28.457Z,12.55
2024-02-09T10:39:31.394Z,12.33
2024-02-09T10:49:38.136Z,12.81
2024-02-09T10:59:42.431Z,13.18
2024-02-09T11:09:47.379Z,12.95
2024-02-09T11:19:50.692Z,13.01
2024-02-09T11:29:54.986Z,13.17
2024-02-09T11:39:57.904Z,13.04
2024-02-09T11:50:02.269Z,13.31
2024-02-09T12:00:06.988Z,13.53
2024-02-09T12:10:11.748Z,13.58
2024-02-09T12:20:16.127Z,13.79
2024-02-09T12:30:21.835Z,13.67
2024-02-09T12:40:24.933Z,13.75
2024-02-09T12:50:30.323Z,13.27
2024-02-09T13:00:34.858Z,13.44
2024-02-09T13:10:39.293Z,13.46
2024-02-09T13:20:44.241Z,13.84
2024-02-09T13:30:49.631Z,13.67
2024-02-09T13:40:53.510Z,13.26
2024-02-09T13:50:58.670Z,13.22
2024-02-09T14:01:01.562Z,13.05
2024-02-09T14:11:06.004Z,13.27
2024-02-09T14:21:08.868Z,13.34
2024-02-09T14:31:13.226Z,13.39
2024-02-09T14:41:16.658Z,13.23
2024-02-09T14:51:22.792Z,13.25
2024-02-09T15:01:25.850Z,13.10
2024-02-09T15:11:30.173Z,13.10
2024-02-09T15:21:33.190Z,13.17
2024-02-09T15:31:38.937Z,13.07
2024-02-09T15:41:44.388Z,13.18
2024-02-09T15:51:48.668Z,13.03
2024-02-09T16:01:54.883Z,13.00
2024-02-09T16:11:59.876Z,12.90
2024-02-09T16:22:02.774Z,12.85
2024-02-09T16:32:07.677Z,12.75
2024-02-09T16:42:10.617Z,12.63
2024-02-09T16:52:14.802Z,12.61
2024-02-09T17:02:17.776Z,12.59
2024-02-09T17:12:21.985Z,12.45
2024-02-09T17:22:25.618Z,12.27
2024-02-09T17:32:31.462Z,12.07
2024-02-09T17:42:34.373Z,11.93
2024-02-09T17:52:39.124Z,11.87
2024-02-09T18:02:44.043Z,11.64
2024-02-09T18:12:48.409Z,11.38
2024-02-09T18:22:51.288Z,11.13
2024-02-09T18:32:57.396Z,10.97
2024-02-09T18:43:00.314Z,10.87
2024-02-09T18:53:04.700Z,10.68
2024-02-09T19:03:08.437Z,10.68
2024-02-09T19:13:15.902Z,10.54
2024-02-09T19:23:18.897Z,10.47
2024-02-09T19:33:23.837Z,10.42
2024-02-09T19:43:26.759Z,10.45
2024-02-09T19:53:31.858Z,10.36
2024-02-09T20:03:34.699Z,10.30
2024-02-09T20:13:38.974Z,10.26
2024-02-09T20:23:44.483Z,10.19
2024-02-09T20:33:50.150Z,10.19
2024-02-09T20:43:53.528Z,10.10
2024-02-09T20:53:59.049Z,9.98
2024-02-09T21:04:02.266Z,10.03
2024-02-09T21:14:06.490Z,10.10
2024-02-09T21:24:10.067Z,10.05
2024-02-09T21:34:14.822Z,10.03
2024-02-09T21:44:20.482Z,9.95
2024-02-09T21:54:25.186Z,9.99
2024-02-09T22:04:28.633Z,10.16
2024-02-09T22:14:34.049Z,10.19
2024-02-09T22:24:37.676Z,10.12
2024-02-09T22:34:44.831Z,10.06
2024-02-09T22:44:48.069Z,10.07
2024-02-09T22:54:54.676Z,9.98
2024-02-09T23:04:58.050Z,9.88
2024-02-09T23:15:02.338Z,9.93
2024-02-09T23:25:05.746Z,9.92
2024-02-09T23:35:10.812Z,9.87
2024-02-09T23:45:19.295Z,9.89
2024-02-09T23:55:24.360Z,9.88
